createdAt,value
2022-09-01T00:01:21.360Z,77.71
2022-09-01T00:06:25.504Z,78.56
2022-09-01T00:11:32.336Z,79.21
2022-09-01T00:16:36.096Z,79.09
2022-09-01T00:21:42.521Z,78.84
2022-09-01T00:26:48.246Z,78.88
2022-09-01T00:31:52.741Z,79.61
2022-09-01T00:36:56.286Z,79.97
2022-09-01T00:42:02.150Z,80.18
2022-09-01T00:47:06.737Z,80.24
2022-09-01T00:52:15.031Z,80.20
2022-09-01T00:57:20.194Z,80.65
2022-09-01T01:02:23.938Z,80.18
2022-09-01T01:07:29.513Z,80.55
2022-09-01T01:12:38.045Z,80.78
2022-09-01T01:17:41.850Z,81.78
2022-09-01T01:23:05.456Z,81.72
2022-09-01T01:28:18.419Z,81.31
2022-09-01T01:33:30.073Z,81.09
2022-09-01T01:38:35.381Z,80.05
2022-09-01T01:43:40.782Z,79.78
2022-09-01T01:48:44.499Z,79.80
2022-09-01T01:53:52.773Z,78.92
2022-09-01T01:58:59.166Z,78.92
2022-09-01T02:04:04.314Z,78.90
2022-09-01T02:09:08.826Z,78.18
2022-09-01T02:14:16.214Z,77.79
2022-09-01T02:19:21.129Z,77.70
2022-09-01T02:24:26.206Z,77.25
2022-09-01T02:29:33.260Z,77.00
2022-09-01T02:34:53.698Z,76.39
2022-09-01T02:39:58.790Z,75.86
2022-09-01T02:45:04.686Z,76.21
2022-09-01T02:50:13.854Z,76.17
2022-09-01T02:55:22.207Z,76.84
2022-09-01T03:00:31.543Z,76.62
2022-09-01T03:05:39.167Z,76.69
2022-09-01T03:10:44.848Z,76.94
2022-09-01T03:15:50.262Z,77.28
2022-09-01T03:20:54.182Z,77.48
2022-09-01T03:25:58.389Z,78.11
2022-09-01T03:31:03.311Z,77.83
2022-09-01T03:36:15.117Z,77.60
2022-09-01T03:41:25.111Z,77.89
2022-09-01T03:46:36.325Z,77.21
2022-09-01T03:51:40.588Z,77.75
2022-09-01T03:56:45.505Z,78.06
2022-09-01T04:01:57.757Z,78.26
2022-09-01T04:07:01.514Z,78.84
2022-09-01T04:12:09.050Z,79.14
2022-09-01T04:17:33.038Z,78.67
2022-09-01T04:22:38.372Z,78.82
2022-09-01T04:27:42.110Z,78.81
2022-09-01T04:32:47.078Z,78.73
2022-09-01T04:37:51.080Z,78.92
2022-09-01T04:42:54.831Z,79.32
2022-09-01T04:48:00.743Z,79.89
2022-09-01T04:53:07.131Z,79.92
2022-09-01T04:58:23.155Z,80.71
2022-09-01T05:03:32.005Z,80.78
2022-09-01T05:08:42.036Z,81.06
2022-09-01T05:13:57.867Z,81.66
2022-09-01T05:19:03.532Z,81.80
2022-09-01T05:24:10.966Z,81.68
2022-09-01T05:29:17.836Z,80.52
2022-09-01T05:34:27.519Z,80.79
2022-09-01T05:39:32.364Z,81.27
2022-09-01T05:44:36.443Z,81.53
2022-09-01T05:49:42.831Z,80.75
2022-09-01T05:54:48.087Z,80.43
2022-09-01T05:59:54.677Z,79.43
2022-09-01T06:05:04.408Z,78.50
2022-09-01T06:10:10.507Z,77.80
2022-09-01T06:15:16.105Z,77.63
2022-09-01T06:20:26.492Z,77.02
2022-09-01T06:25:30.672Z,76.96
2022-09-01T06:30:36.516Z,76.51
2022-09-01T06:35:48.147Z,75.30
2022-09-01T06:41:01.362Z,75.13
2022-09-01T06:46:04.992Z,74.60
2022-09-01T06:56:42.872Z,72.44
2022-09-01T07:02:04.784Z,71.02
2022-09-01T07:13:38.749Z,69.75
2022-09-01T07:18:42.614Z,70.08
2022-09-01T07:24:10.896Z,70.03
2022-09-01T07:29:14.359Z,68.73
2022-09-01T07:39:48.438Z,68.48
2022-09-01T07:39:57.220Z,74.03
2022-09-01T07:45:28.913Z,67.70
2022-09-01T07:51:34.778Z,67.46
2022-09-01T07:56:09.575Z,66.16
2022-09-01T08:01:21.811Z,55.62
2022-09-01T08:06:28.362Z,49.08
2022-09-01T08:12:00.693Z,44.68
2022-09-01T08:16:59.810Z,41.19
2022-09-01T08:22:23.398Z,38.23
2022-09-01T08:27:40.228Z,37.59
2022-09-01T08:32:44.157Z,35.84
2022-09-01T08:37:47.980Z,35.81
2022-09-01T08:43:09.087Z,36.76
2022-09-01T08:53:47.276Z,40.01
2022-09-01T08:58:54.197Z,41.23
2022-09-01T09:04:23.716Z,41.42
2022-09-01T09:09:35.314Z,42.49
2022-09-01T09:14:52.131Z,42.42
2022-09-01T09:19:55.926Z,43.11
2022-09-01T09:25:08.323Z,42.66
2022-09-01T09:30:16.150Z,41.90
2022-09-01T09:35:25.192Z,42.11
2022-09-01T09:40:28.910Z,41.56
2022-09-01T09:45:37.216Z,41.32
2022-09-01T09:50:43.360Z,39.77
2022-09-01T09:55:56.450Z,39.14
2022-09-01T10:01:05.146Z,38.51
2022-09-01T10:06:13.320Z,38.27
2022-09-01T10:11:35.682Z,38.46
2022-09-01T10:16:42.630Z,38.43
2022-09-01T10:21:47.892Z,38.77
2022-09-01T10:26:56.802Z,37.94
2022-09-01T10:32:30.417Z,36.81
2022-09-01T10:37:29.410Z,36.86
2022-09-01T10:42:33.486Z,35.87
2022-09-01T10:47:40.365Z,34.74
2022-09-01T10:53:05.960Z,33.09
2022-09-01T11:03:58.177Z,33.46
2022-09-01T11:09:07.885Z,32.67
2022-09-01T11:14:20.197Z,33.10
2022-09-01T11:19:37.739Z,32.58
2022-09-01T11:24:55.937Z,31.56
2022-09-01T11:30:10.395Z,32.11
2022-09-01T11:35:20.263Z,32.91
2022-09-01T11:40:29.647Z,32.64
2022-09-01T11:45:46.133Z,31.61
2022-09-01T11:50:59.751Z,31.99
2022-09-01T11:56:16.146Z,31.63
2022-09-01T12:01:23.436Z,31.91
2022-09-01T12:06:30.842Z,32.21
2022-09-01T12:11:36.244Z,31.71
2022-09-01T12:16:42.731Z,31.70
2022-09-01T12:22:00.000Z,31.64
2022-09-01T12:27:05.838Z,32.37
2022-09-01T12:32:11.264Z,32.36
2022-09-01T12:37:24.415Z,31.83
2022-09-01T12:42:40.585Z,31.39
2022-09-01T12:47:50.374Z,31.55
2022-09-01T12:52:58.458Z,32.57
2022-09-01T12:58:04.486Z,32.33
2022-09-01T13:03:14.283Z,31.38
2022-09-01T13:08:21.454Z,31.83
2022-09-01T13:13:26.794Z,31.44
2022-09-01T13:18:31.353Z,31.19
2022-09-01T13:23:36.941Z,30.61
2022-09-01T13:28:41.018Z,30.79
2022-09-01T13:39:10.340Z,30.77
2022-09-01T13:44:14.502Z,30.83
2022-09-01T13:54:44.313Z,30.93
2022-09-01T13:59:48.014Z,31.09
2022-09-01T14:04:51.907Z,31.19
2022-09-01T14:09:57.138Z,30.86
2022-09-01T14:15:18.091Z,30.66
2022-09-01T14:20:27.086Z,31.11
2022-09-01T14:25:33.430Z,30.56
2022-09-01T14:30:37.473Z,30.81
2022-09-01T14:35:44.168Z,30.95
2022-09-01T14:40:52.077Z,30.36
2022-09-01T14:46:06.651Z,30.66
2022-09-01T14:51:10.992Z,30.76
2022-09-01T14:56:18.385Z,30.96
2022-09-01T15:01:34.225Z,30.84
2022-09-01T15:06:38.521Z,30.93
2022-09-01T15:11:44.177Z,30.70
2022-09-01T15:16:49.325Z,30.91
2022-09-01T15:21:53.067Z,31.00
2022-09-01T15:26:58.179Z,31.39
2022-09-01T15:32:02.728Z,31.73
2022-09-01T15:37:07.045Z,31.58
2022-09-01T15:42:12.247Z,31.87
2022-09-01T15:47:16.021Z,32.11
2022-09-01T15:52:21.160Z,32.13
2022-09-01T15:57:26.172Z,32.33
2022-09-01T16:02:30.127Z,32.07
2022-09-01T16:07:33.852Z,32.15
2022-09-01T16:12:39.757Z,32.19
2022-09-01T16:17:59.308Z,32.40
2022-09-01T16:23:13.476Z,32.30
2022-09-01T16:28:26.517Z,32.22
2022-09-01T16:33:30.265Z,32.58
2022-09-01T16:38:42.359Z,32.51
2022-09-01T16:43:53.685Z,32.70
2022-09-01T16:49:09.605Z,32.93
2022-09-01T16:54:20.986Z,32.90
2022-09-01T16:59:35.827Z,33.28
2022-09-01T17:04:46.893Z,33.16
2022-09-01T17:10:04.256Z,32.98
2022-09-01T17:15:12.974Z,33.32
2022-09-01T17:20:17.912Z,33.22
2022-09-01T17:25:30.353Z,33.63
2022-09-01T17:30:44.918Z,33.82
2022-09-01T17:36:03.996Z,33.64
2022-09-01T17:41:19.730Z,33.63
2022-09-01T17:46:35.401Z,33.93
2022-09-01T17:51:45.365Z,33.95
2022-09-01T17:56:59.734Z,33.88
2022-09-01T18:02:20.322Z,34.25
2022-09-01T18:07:39.920Z,34.19
2022-09-01T18:12:46.384Z,34.45
2022-09-01T18:17:55.457Z,34.72
2022-09-01T18:23:04.772Z,34.89
2022-09-01T18:28:09.121Z,34.99
2022-09-01T18:33:25.358Z,35.16
2022-09-01T18:38:37.084Z,35.39
2022-09-01T18:43:45.369Z,35.73
2022-09-01T18:49:06.914Z,35.86
2022-09-01T18:54:17.182Z,36.06
2022-09-01T18:59:37.019Z,36.20
2022-09-01T19:04:46.126Z,36.18
2022-09-01T19:09:57.292Z,36.04
2022-09-01T19:15:11.544Z,36.41
2022-09-01T19:20:23.624Z,36.28
2022-09-01T19:25:36.930Z,36.31
2022-09-01T19:30:43.830Z,36.50
2022-09-01T19:35:52.183Z,36.43
2022-09-01T19:41:04.825Z,36.37
2022-09-01T19:46:18.814Z,36.76
2022-09-01T19:51:29.118Z,36.89
2022-09-01T19:56:39.922Z,36.91
2022-09-01T20:01:58.150Z,37.21
2022-09-01T20:07:03.945Z,37.37
2022-09-01T20:12:18.618Z,37.69
2022-09-01T20:17:28.040Z,37.68
2022-09-01T20:22:43.623Z,37.73
2022-09-01T20:27:55.648Z,37.69
2022-09-01T20:33:04.152Z,37.70
2022-09-01T20:38:30.084Z,37.80
2022-09-01T20:43:40.141Z,37.92
2022-09-01T20:48:43.882Z,38.18
2022-09-01T20:54:05.166Z,38.37
2022-09-01T20:59:15.036Z,38.64
2022-09-01T21:04:34.942Z,38.73
2022-09-01T21:09:50.655Z,38.85
2022-09-01T21:15:04.416Z,38.78
2022-09-01T21:20:15.149Z,38.90
2022-09-01T21:25:20.055Z,39.08
2022-09-01T21:30:25.273Z,39.03
2022-09-01T21:35:29.257Z,39.19
2022-09-01T21:40:35.165Z,39.37
2022-09-01T21:45:39.267Z,39.38
2022-09-01T21:50:43.202Z,39.49
2022-09-01T21:55:48.257Z,39.62
2022-09-01T22:00:52.437Z,39.71
2022-09-01T22:05:56.212Z,39.92
2022-09-01T22:11:01.117Z,39.80
2022-09-01T22:16:05.014Z,39.82
2022-09-01T22:21:10.581Z,39.83
2022-09-01T22:26:21.716Z,40.08
2022-09-01T22:31:27.424Z,40.21
2022-09-01T22:36:35.637Z,40.26
2022-09-01T22:41:42.299Z,40.65
2022-09-01T22:46:46.010Z,40.43
2022-09-01T22:51:49.573Z,40.69
2022-09-01T22:56:54.735Z,40.58
2022-09-01T23:02:02.289Z,40.56
2022-09-01T23:07:07.177Z,40.80
2022-09-01T23:12:12.116Z,40.86
2022-09-01T23:17:18.353Z,41.01
2022-09-01T23:22:21.858Z,41.10
2022-09-01T23:27:26.923Z,41.56
2022-09-01T23:32:30.923Z,41.61
2022-09-01T23:37:34.487Z,41.59
2022-09-01T23:42:39.350Z,42.18
2022-09-01T23:47:42.910Z,41.81
2022-09-01T23:52:46.577Z,42.41
2022-09-01T23:57:51.527Z,42.28
